createdAt,value
2017-06-18T00:00:23.499Z,24.08
2017-06-18T00:01:24.143Z,24.10
2017-06-18T00:02:24.789Z,24.06
2017-06-18T00:03:25.432Z,24.06
2017-06-18T00:04:26.076Z,24.06
2017-06-18T00:05:26.720Z,24.02
2017-06-18T00:06:27.568Z,24.01
2017-06-18T00:07:28.210Z,24.03
2017-06-18T00:08:28.851Z,24.01
2017-06-18T00:09:29.494Z,24.03
2017-06-18T00:10:30.137Z,24.03
2017-06-18T00:11:30.782Z,24.03
2017-06-18T00:12:31.424Z,24.06
2017-06-18T00:13:32.066Z,24.01
2017-06-18T00:14:32.712Z,23.99
2017-06-18T00:15:33.606Z,24.02
2017-06-18T00:16:34.248Z,23.98
2017-06-18T00:17:34.891Z,23.99
2017-06-18T00:18:35.535Z,24.01
2017-06-18T00:19:36.178Z,23.99
2017-06-18T00:20:36.825Z,24.05
2017-06-18T00:21:37.470Z,24.01
2017-06-18T00:22:38.114Z,24.02
2017-06-18T00:23:38.906Z,24.05
2017-06-18T00:24:39.550Z,23.98
2017-06-18T00:25:40.195Z,24.03
2017-06-18T00:26:40.838Z,23.95
2017-06-18T00:27:41.482Z,23.99
2017-06-18T00:28:42.123Z,23.95
2017-06-18T00:29:42.765Z,23.96
2017-06-18T00:30:43.409Z,23.92
2017-06-18T00:31:44.309Z,23.92
2017-06-18T00:32:44.965Z,24.01
2017-06-18T00:33:45.600Z,24.01
2017-06-18T00:34:46.246Z,23.98
2017-06-18T00:35:46.887Z,23.98
2017-06-18T00:36:47.530Z,23.93
2017-06-18T00:37:48.173Z,23.87
2017-06-18T00:38:48.817Z,23.93
2017-06-18T00:39:49.710Z,23.93
2017-06-18T00:40:50.356Z,23.91
2017-06-18T00:41:51.004Z,23.92
2017-06-18T00:42:51.646Z,23.86
2017-06-18T00:43:52.286Z,23.95
2017-06-18T00:44:52.932Z,23.84
2017-06-18T00:45:53.575Z,23.92
2017-06-18T00:46:54.219Z,23.96
2017-06-18T00:47:55.063Z,23.91
2017-06-18T00:48:55.704Z,23.98
2017-06-18T00:49:56.347Z,23.87
2017-06-18T00:50:56.992Z,23.91
2017-06-18T00:51:57.632Z,23.93
2017-06-18T00:52:58.278Z,23.86
2017-06-18T00:53:58.922Z,23.91
2017-06-18T00:54:59.568Z,23.88
2017-06-18T00:56:00.209Z,23.87
2017-06-18T00:57:01.051Z,23.87
2017-06-18T00:58:01.698Z,23.87
2017-06-18T00:59:02.342Z,23.93
2017-06-18T01:00:02.986Z,23.87
2017-06-18T01:01:03.629Z,23.84
2017-06-18T01:02:04.271Z,23.74
2017-06-18T01:03:04.915Z,23.77
2017-06-18T01:04:05.560Z,23.88
2017-06-18T01:05:06.600Z,23.77
2017-06-18T01:06:07.192Z,23.76
2017-06-18T01:07:07.835Z,23.81
2017-06-18T01:08:08.479Z,23.83
2017-06-18T01:09:09.126Z,23.80
2017-06-18T01:10:09.768Z,23.77
2017-06-18T01:11:10.409Z,23.86
2017-06-18T01:12:11.053Z,23.78
2017-06-18T01:13:11.999Z,23.78
2017-06-18T01:14:12.639Z,23.78
2017-06-18T01:15:13.284Z,23.78
2017-06-18T01:16:13.927Z,23.80
2017-06-18T01:17:14.570Z,23.78
2017-06-18T01:18:15.215Z,23.77
2017-06-18T01:19:15.857Z,23.80
2017-06-18T01:20:16.500Z,23.80
2017-06-18T01:21:17.293Z,23.80
2017-06-18T01:22:17.939Z,23.76
2017-06-18T01:23:18.582Z,23.74
2017-06-18T01:24:19.225Z,23.73
2017-06-18T01:25:19.867Z,23.76
2017-06-18T01:26:20.512Z,23.73
2017-06-18T01:27:21.156Z,23.80
2017-06-18T01:28:21.805Z,23.71
2017-06-18T01:29:22.444Z,23.80
2017-06-18T01:30:23.288Z,23.73
2017-06-18T01:31:23.931Z,23.80
2017-06-18T01:32:24.573Z,23.83
2017-06-18T01:33:25.219Z,23.76
2017-06-18T01:34:25.864Z,23.77
2017-06-18T01:35:26.507Z,23.76
2017-06-18T01:36:27.148Z,23.68
2017-06-18T01:37:27.790Z,23.71
2017-06-18T01:38:28.633Z,23.69
2017-06-18T01:39:29.279Z,23.71
2017-06-18T01:40:29.921Z,23.68
2017-06-18T01:41:30.562Z,23.68
2017-06-18T01:42:31.206Z,23.65
2017-06-18T01:43:31.848Z,23.66
2017-06-18T01:44:32.489Z,23.69
2017-06-18T01:45:33.136Z,23.74
2017-06-18T01:46:33.979Z,23.66
2017-06-18T01:47:34.623Z,23.66
2017-06-18T01:48:35.266Z,23.66
2017-06-18T01:49:35.911Z,23.66
2017-06-18T01:50:36.555Z,23.66
2017-06-18T01:51:37.200Z,23.61
2017-06-18T01:52:37.842Z,23.66
2017-06-18T01:53:38.484Z,23.62
2017-06-18T01:54:39.278Z,23.66
2017-06-18T01:55:39.923Z,23.68
2017-06-18T01:56:40.566Z,23.59
2017-06-18T01:57:41.208Z,23.55
2017-06-18T01:58:41.850Z,23.61
2017-06-18T01:59:42.493Z,23.63
2017-06-18T02:00:43.137Z,23.65
2017-06-18T02:01:43.782Z,23.68
2017-06-18T02:02:44.627Z,23.62
2017-06-18T02:03:45.268Z,23.58
2017-06-18T02:04:45.910Z,23.65
2017-06-18T02:05:46.552Z,23.63
2017-06-18T02:06:47.194Z,23.56
2017-06-18T02:07:47.841Z,23.58
2017-06-18T02:08:48.485Z,23.61
2017-06-18T02:09:49.127Z,23.63
2017-06-18T02:10:49.768Z,23.56
2017-06-18T02:11:50.610Z,23.58
2017-06-18T02:12:51.259Z,23.58
2017-06-18T02:13:51.903Z,23.58
2017-06-18T02:14:52.547Z,23.55
2017-06-18T02:15:53.189Z,23.58
2017-06-18T02:16:53.830Z,23.50
2017-06-18T02:17:54.473Z,23.51
2017-06-18T02:18:55.117Z,23.55
2017-06-18T02:19:55.959Z,23.58
2017-06-18T02:20:56.603Z,23.55
2017-06-18T02:21:57.246Z,23.54
2017-06-18T02:22:57.888Z,23.59
2017-06-18T02:23:58.532Z,23.51
2017-06-18T02:24:59.173Z,23.56
2017-06-18T02:25:59.817Z,23.51
2017-06-18T02:27:00.463Z,23.54
2017-06-18T02:28:01.312Z,23.58
2017-06-18T02:29:02.008Z,23.55
2017-06-18T02:30:02.650Z,23.59
2017-06-18T02:31:03.292Z,23.56
2017-06-18T02:32:03.936Z,23.56
2017-06-18T02:33:04.580Z,23.63
2017-06-18T02:34:05.225Z,23.59
2017-06-18T02:35:05.869Z,23.63
2017-06-18T02:36:06.713Z,23.63
2017-06-18T02:37:07.358Z,23.63
2017-06-18T02:38:08.004Z,23.63
2017-06-18T02:39:08.648Z,23.55
2017-06-18T02:40:09.289Z,23.55
2017-06-18T02:41:09.933Z,23.59
2017-06-18T02:42:10.578Z,23.59
2017-06-18T02:43:11.226Z,23.58
2017-06-18T02:44:11.869Z,23.54
2017-06-18T02:45:12.709Z,23.61
2017-06-18T02:46:13.354Z,23.54
2017-06-18T02:47:13.998Z,23.58
2017-06-18T02:48:14.644Z,23.59
2017-06-18T02:49:15.286Z,23.61
2017-06-18T02:50:15.930Z,23.58
2017-06-18T02:51:16.571Z,23.54
2017-06-18T02:52:17.213Z,23.61
2017-06-18T02:53:18.055Z,23.59
2017-06-18T02:54:18.698Z,23.58
2017-06-18T02:55:19.340Z,23.58
2017-06-18T02:56:19.984Z,23.50
2017-06-18T02:57:20.625Z,23.51
2017-06-18T02:58:21.271Z,23.51
2017-06-18T02:59:21.916Z,23.58
2017-06-18T03:00:22.557Z,23.51
2017-06-18T03:01:23.400Z,23.58
2017-06-18T03:02:24.043Z,23.51
2017-06-18T03:03:24.686Z,23.51
2017-06-18T03:04:25.329Z,23.54
2017-06-18T03:05:25.974Z,23.48
2017-06-18T03:06:26.618Z,23.48
2017-06-18T03:07:27.261Z,23.48
2017-06-18T03:08:27.905Z,23.50
2017-06-18T03:09:28.746Z,23.51
2017-06-18T03:10:29.393Z,23.54
2017-06-18T03:11:30.039Z,23.58
2017-06-18T03:12:30.680Z,23.48
2017-06-18T03:13:31.321Z,23.55
2017-06-18T03:14:31.965Z,23.47
2017-06-18T03:15:32.607Z,23.48
2017-06-18T03:16:33.252Z,23.43
2017-06-18T03:17:34.047Z,23.43
2017-06-18T03:18:34.691Z,23.43
2017-06-18T03:19:35.335Z,23.48
2017-06-18T03:20:35.976Z,23.50
2017-06-18T03:21:36.620Z,23.47
2017-06-18T03:22:37.266Z,23.51
2017-06-18T03:23:37.911Z,23.51
2017-06-18T03:24:38.551Z,23.51
2017-06-18T03:25:39.196Z,23.54
2017-06-18T03:26:40.039Z,23.47
2017-06-18T03:27:40.682Z,23.46
2017-06-18T03:28:41.327Z,23.51
2017-06-18T03:29:41.970Z,23.46
2017-06-18T03:30:42.614Z,23.50
2017-06-18T03:31:43.254Z,23.48
2017-06-18T03:32:43.899Z,23.50
2017-06-18T03:33:44.540Z,23.47
2017-06-18T03:34:45.536Z,23.51
2017-06-18T03:35:46.177Z,23.41
2017-06-18T03:36:46.822Z,23.46
2017-06-18T03:37:47.468Z,23.47
2017-06-18T03:38:48.110Z,23.50
2017-06-18T03:39:48.752Z,23.48
2017-06-18T03:40:49.393Z,23.46
2017-06-18T03:41:50.035Z,23.44
2017-06-18T03:42:50.830Z,23.43
2017-06-18T03:43:51.470Z,23.46
2017-06-18T03:44:52.114Z,23.43
2017-06-18T03:45:52.754Z,23.55
2017-06-18T03:46:53.398Z,23.44
2017-06-18T03:47:54.044Z,23.44
2017-06-18T03:48:54.689Z,23.43
2017-06-18T03:49:55.332Z,23.41
2017-06-18T03:50:56.173Z,23.43
2017-06-18T03:51:56.818Z,23.44
2017-06-18T03:52:57.462Z,23.43
2017-06-18T03:53:58.105Z,23.40
2017-06-18T03:54:58.750Z,23.44
2017-06-18T03:55:59.391Z,23.43
2017-06-18T03:57:00.033Z,23.40
2017-06-18T03:58:00.626Z,23.40
2017-06-18T03:59:01.270Z,23.39
2017-06-18T04:00:02.065Z,23.40
2017-06-18T04:01:02.708Z,23.44
2017-06-18T04:02:03.352Z,23.44
2017-06-18T04:03:03.996Z,23.43
2017-06-18T04:04:04.641Z,23.41
2017-06-18T04:05:05.286Z,23.46
2017-06-18T04:06:05.929Z,23.44
2017-06-18T04:07:06.572Z,23.40
2017-06-18T04:08:07.413Z,23.47
2017-06-18T04:09:08.066Z,23.37
2017-06-18T04:10:08.717Z,23.39
2017-06-18T04:11:09.356Z,23.43
2017-06-18T04:12:10.002Z,23.40
2017-06-18T04:13:10.646Z,23.41
2017-06-18T04:14:11.292Z,23.43
2017-06-18T04:15:11.932Z,23.44
2017-06-18T04:16:12.725Z,23.43
2017-06-18T04:17:13.374Z,23.37
2017-06-18T04:18:14.070Z,23.40
2017-06-18T04:19:14.716Z,23.46
2017-06-18T04:20:15.357Z,23.40
2017-06-18T04:21:16.002Z,23.43
2017-06-18T04:22:16.648Z,23.40
2017-06-18T04:23:17.287Z,23.43
2017-06-18T04:24:18.128Z,23.47
2017-06-18T04:25:18.772Z,23.44
2017-06-18T04:26:19.415Z,23.43
2017-06-18T04:27:20.059Z,23.40
2017-06-18T04:28:20.702Z,23.37
2017-06-18T04:29:21.345Z,23.44
2017-06-18T04:30:21.985Z,23.39
2017-06-18T04:31:22.629Z,23.37
2017-06-18T04:32:23.572Z,23.41
2017-06-18T04:33:24.216Z,23.34
2017-06-18T04:34:24.859Z,23.28
2017-06-18T04:35:25.503Z,23.31
2017-06-18T04:36:26.146Z,23.36
2017-06-18T04:37:26.788Z,23.39
2017-06-18T04:38:27.432Z,23.31
2017-06-18T04:39:28.076Z,23.34
2017-06-18T04:40:28.721Z,23.31
2017-06-18T04:41:29.514Z,23.34
2017-06-18T04:42:30.158Z,23.28
2017-06-18T04:43:30.799Z,23.34
2017-06-18T04:44:31.445Z,23.36
2017-06-18T04:45:32.088Z,23.36
2017-06-18T04:46:32.730Z,23.37
2017-06-18T04:47:33.374Z,23.37
2017-06-18T04:48:34.014Z,23.37
2017-06-18T04:49:34.860Z,23.39
2017-06-18T04:50:35.502Z,23.47
2017-06-18T04:51:36.144Z,23.37
2017-06-18T04:52:36.786Z,23.40
2017-06-18T04:53:37.428Z,23.40
2017-06-18T04:54:38.070Z,23.31
2017-06-18T04:55:38.713Z,23.37
2017-06-18T04:56:39.359Z,23.37
2017-06-18T04:57:40.201Z,23.34
2017-06-18T04:58:40.844Z,23.32
2017-06-18T04:59:41.487Z,23.28
2017-06-18T05:00:42.128Z,23.37
2017-06-18T05:01:42.772Z,23.23
2017-06-18T05:02:43.416Z,23.24
2017-06-18T05:03:44.060Z,23.21
2017-06-18T05:04:44.703Z,23.15
2017-06-18T05:05:45.546Z,23.17
2017-06-18T05:06:46.191Z,23.17
2017-06-18T05:07:46.834Z,23.18
2017-06-18T05:08:47.479Z,23.15
2017-06-18T05:09:48.131Z,23.17
2017-06-18T05:10:48.825Z,23.18
2017-06-18T05:11:49.467Z,23.17
2017-06-18T05:12:50.108Z,23.15
2017-06-18T05:13:50.751Z,23.18
2017-06-18T05:14:51.546Z,23.15
2017-06-18T05:15:52.189Z,23.12
2017-06-18T05:16:52.831Z,23.24
2017-06-18T05:17:53.472Z,23.24
2017-06-18T05:18:54.115Z,23.24
2017-06-18T05:19:54.759Z,23.20
2017-06-18T05:20:55.400Z,23.27
2017-06-18T05:21:56.044Z,23.24
2017-06-18T05:22:57.038Z,23.23
2017-06-18T05:23:57.683Z,23.23
2017-06-18T05:24:58.325Z,23.21
2017-06-18T05:25:58.968Z,23.23
2017-06-18T05:26:59.609Z,23.25
2017-06-18T05:28:00.253Z,23.20
2017-06-18T05:29:00.894Z,23.23
2017-06-18T05:30:01.540Z,23.20
2017-06-18T05:31:02.432Z,23.20
2017-06-18T05:32:03.074Z,23.24
2017-06-18T05:33:03.716Z,23.24
2017-06-18T05:34:04.360Z,23.25
2017-06-18T05:35:05.002Z,23.27
2017-06-18T05:36:05.646Z,23.23
2017-06-18T05:37:06.291Z,23.20
2017-06-18T05:38:06.934Z,23.23
2017-06-18T05:39:07.929Z,23.24
2017-06-18T05:40:08.571Z,23.24
2017-06-18T05:41:09.213Z,23.24
2017-06-18T05:42:09.856Z,23.21
2017-06-18T05:43:10.498Z,23.25
2017-06-18T05:44:11.144Z,23.25
2017-06-18T05:45:11.737Z,23.20
2017-06-18T05:46:12.379Z,23.27
2017-06-18T05:47:13.272Z,23.31
2017-06-18T05:48:13.915Z,23.31
2017-06-18T05:49:14.557Z,23.28
2017-06-18T05:50:15.199Z,23.25
2017-06-18T05:51:15.845Z,23.25
2017-06-18T05:52:16.490Z,23.21
2017-06-18T05:53:17.134Z,23.27
2017-06-18T05:54:17.775Z,23.37
2017-06-18T05:55:18.417Z,23.27
2017-06-18T05:56:19.262Z,23.31
2017-06-18T05:57:19.904Z,23.32
2017-06-18T05:58:20.548Z,23.27
2017-06-18T05:59:21.191Z,23.21
2017-06-18T06:00:21.835Z,23.32
2017-06-18T06:01:22.478Z,23.25
2017-06-18T06:02:23.123Z,23.31
2017-06-18T06:03:23.766Z,23.27
2017-06-18T06:04:24.707Z,23.34
2017-06-18T06:05:25.352Z,23.32
2017-06-18T06:06:25.995Z,23.31
2017-06-18T06:07:26.637Z,23.31
2017-06-18T06:08:27.280Z,23.41
2017-06-18T06:09:27.925Z,23.31
2017-06-18T06:10:28.570Z,23.41
2017-06-18T06:11:29.210Z,23.40
2017-06-18T06:12:30.205Z,23.32
2017-06-18T06:13:30.846Z,23.44
2017-06-18T06:14:31.489Z,23.37
2017-06-18T06:15:32.132Z,23.40
2017-06-18T06:16:32.775Z,23.37
2017-06-18T06:17:33.419Z,23.39
2017-06-18T06:18:34.060Z,23.37
2017-06-18T06:19:34.704Z,23.36
2017-06-18T06:20:35.547Z,23.39
2017-06-18T06:21:36.189Z,23.37
2017-06-18T06:22:36.831Z,23.37
2017-06-18T06:23:37.473Z,23.44
2017-06-18T06:24:38.115Z,23.41
2017-06-18T06:25:38.757Z,23.43
2017-06-18T06:26:39.404Z,23.37
2017-06-18T06:27:40.047Z,23.36
2017-06-18T06:28:40.892Z,23.34
2017-06-18T06:29:41.536Z,23.27
2017-06-18T06:30:42.176Z,23.27
2017-06-18T06:31:42.819Z,23.34
2017-06-18T06:32:43.464Z,23.32
2017-06-18T06:33:44.108Z,23.34
2017-06-18T06:34:44.751Z,23.28
2017-06-18T06:35:45.393Z,23.32
2017-06-18T06:36:46.035Z,23.34
2017-06-18T06:37:46.827Z,23.39
2017-06-18T06:38:47.469Z,23.32
2017-06-18T06:39:48.114Z,23.31
2017-06-18T06:40:48.755Z,23.32
2017-06-18T06:41:49.400Z,23.36
2017-06-18T06:42:50.043Z,23.32
2017-06-18T06:43:50.688Z,23.39
2017-06-18T06:44:51.331Z,23.27
2017-06-18T06:45:52.174Z,23.36
2017-06-18T06:46:52.817Z,23.28
2017-06-18T06:47:53.460Z,23.39
2017-06-18T06:48:54.103Z,23.36
2017-06-18T06:49:54.747Z,23.37
2017-06-18T06:50:55.390Z,23.41
2017-06-18T06:51:56.034Z,23.39
2017-06-18T06:52:56.674Z,23.40
2017-06-18T06:53:57.468Z,23.40
2017-06-18T06:54:58.111Z,23.37
2017-06-18T06:55:58.755Z,23.34
2017-06-18T06:56:59.396Z,23.25
2017-06-18T06:58:00.041Z,23.31
2017-06-18T06:59:00.740Z,23.31
2017-06-18T07:00:01.383Z,23.36
2017-06-18T07:01:02.026Z,23.36
2017-06-18T07:02:02.871Z,23.40
2017-06-18T07:03:03.511Z,23.47
2017-06-18T07:04:04.156Z,23.43
2017-06-18T07:05:04.798Z,23.41
2017-06-18T07:06:05.439Z,23.43
2017-06-18T07:07:06.084Z,23.37
2017-06-18T07:08:06.730Z,23.37
2017-06-18T07:09:07.373Z,23.43
2017-06-18T07:10:08.015Z,23.40
2017-06-18T07:11:08.859Z,23.40
2017-06-18T07:12:09.502Z,23.41
2017-06-18T07:13:10.145Z,23.39
2017-06-18T07:14:10.789Z,23.40
2017-06-18T07:15:11.430Z,23.43
2017-06-18T07:16:12.072Z,23.47
2017-06-18T07:17:12.716Z,23.43
2017-06-18T07:18:13.358Z,23.37
2017-06-18T07:19:14.150Z,23.40
2017-06-18T07:20:14.792Z,23.39
2017-06-18T07:21:15.437Z,23.41
2017-06-18T07:22:16.077Z,23.37
2017-06-18T07:23:16.720Z,23.43
2017-06-18T07:24:17.363Z,23.43
2017-06-18T07:25:18.007Z,23.39
2017-06-18T07:26:18.651Z,23.41
2017-06-18T07:27:19.492Z,23.40
2017-06-18T07:28:20.137Z,23.41
2017-06-18T07:29:20.780Z,23.43
2017-06-18T07:30:21.424Z,23.40
2017-06-18T07:31:22.067Z,23.37
2017-06-18T07:32:22.707Z,23.37
2017-06-18T07:33:23.352Z,23.39
2017-06-18T07:34:23.994Z,23.39
2017-06-18T07:35:24.839Z,23.37
2017-06-18T07:36:25.483Z,23.40
2017-06-18T07:37:26.124Z,23.39
2017-06-18T07:38:26.766Z,23.40
2017-06-18T07:39:27.407Z,23.43
2017-06-18T07:40:28.052Z,23.40
2017-06-18T07:41:28.695Z,23.37
2017-06-18T07:42:29.340Z,23.37
2017-06-18T07:43:30.132Z,23.36
2017-06-18T07:44:30.775Z,23.34
2017-06-18T07:45:31.421Z,23.37
2017-06-18T07:46:32.063Z,23.34
2017-06-18T07:47:32.704Z,23.36
2017-06-18T07:48:33.346Z,23.34
2017-06-18T07:49:33.990Z,23.37
2017-06-18T07:50:34.633Z,23.36
2017-06-18T07:51:35.275Z,23.34
2017-06-18T07:52:36.121Z,23.43
2017-06-18T07:53:36.769Z,23.40
2017-06-18T07:54:37.405Z,23.37
2017-06-18T07:55:38.048Z,23.37
2017-06-18T07:56:38.692Z,23.32
2017-06-18T07:57:39.336Z,23.39
2017-06-18T07:58:39.982Z,23.40
2017-06-18T07:59:40.628Z,23.40
2017-06-18T08:00:41.474Z,23.40
2017-06-18T08:01:42.118Z,23.39
2017-06-18T08:02:42.764Z,23.40
2017-06-18T08:03:43.404Z,23.40
2017-06-18T08:04:43.996Z,23.39
2017-06-18T08:05:44.640Z,23.43
2017-06-18T08:06:45.282Z,23.34
2017-06-18T08:07:45.924Z,23.40
2017-06-18T08:08:46.820Z,23.40
2017-06-18T08:09:47.462Z,23.39
2017-06-18T08:10:48.106Z,23.40
2017-06-18T08:11:48.751Z,23.40
2017-06-18T08:12:49.392Z,23.39
2017-06-18T08:13:49.986Z,23.36
2017-06-18T08:14:50.677Z,23.40
2017-06-18T08:15:51.320Z,23.39
2017-06-18T08:16:52.112Z,23.37
2017-06-18T08:17:52.754Z,23.31
2017-06-18T08:18:53.399Z,23.32
2017-06-18T08:19:54.048Z,23.32
2017-06-18T08:20:54.688Z,23.34
2017-06-18T08:21:55.329Z,23.32
2017-06-18T08:22:55.976Z,23.31
2017-06-18T08:23:56.615Z,23.39
2017-06-18T08:24:57.258Z,23.32
2017-06-18T08:25:58.100Z,23.27
2017-06-18T08:26:58.745Z,23.37
2017-06-18T08:27:59.388Z,23.34
2017-06-18T08:29:00.029Z,23.31
2017-06-18T08:30:00.673Z,23.41
2017-06-18T08:31:01.315Z,23.39
2017-06-18T08:32:01.957Z,23.37
2017-06-18T08:33:02.600Z,23.39
2017-06-18T08:34:03.445Z,23.31
2017-06-18T08:35:04.088Z,23.39
2017-06-18T08:36:04.730Z,23.40
2017-06-18T08:37:05.374Z,23.36
2017-06-18T08:38:06.025Z,23.40
2017-06-18T08:39:06.662Z,23.43
2017-06-18T08:40:07.363Z,23.44
2017-06-18T08:41:08.006Z,23.40
2017-06-18T08:42:08.852Z,23.37
2017-06-18T08:43:09.494Z,23.39
2017-06-18T08:44:10.135Z,23.40
2017-06-18T08:45:10.779Z,23.40
2017-06-18T08:46:11.369Z,23.37
2017-06-18T08:47:12.013Z,23.41
2017-06-18T08:48:12.657Z,23.37
2017-06-18T08:49:13.297Z,23.40
2017-06-18T08:50:14.140Z,23.50
2017-06-18T08:51:14.784Z,23.40
2017-06-18T08:52:15.431Z,23.37
2017-06-18T08:53:16.070Z,23.48
2017-06-18T08:54:16.714Z,23.50
2017-06-18T08:55:17.355Z,23.44
2017-06-18T08:56:18.001Z,23.46
2017-06-18T08:57:18.750Z,23.46
2017-06-18T08:58:19.390Z,23.46
2017-06-18T08:59:20.233Z,23.48
2017-06-18T09:00:20.880Z,23.43
2017-06-18T09:01:21.521Z,23.51
2017-06-18T09:02:22.165Z,23.47
2017-06-18T09:03:23.006Z,23.47
2017-06-18T09:04:23.657Z,23.51
2017-06-18T09:05:24.299Z,23.51
2017-06-18T09:06:24.945Z,23.47
2017-06-18T09:07:25.587Z,23.46
2017-06-18T09:08:26.232Z,23.50
2017-06-18T09:09:26.871Z,23.50
2017-06-18T09:10:27.516Z,23.46
2017-06-18T09:11:28.359Z,23.50
2017-06-18T09:12:29.003Z,23.50
2017-06-18T09:13:29.645Z,23.56
2017-06-18T09:14:30.289Z,23.55
2017-06-18T09:15:30.942Z,23.63
2017-06-18T09:16:31.586Z,23.71
2017-06-18T09:17:32.234Z,23.83
2017-06-18T09:18:32.884Z,23.87
2017-06-18T09:19:33.829Z,23.93
2017-06-18T09:20:34.478Z,23.87
2017-06-18T09:21:35.125Z,23.93
2017-06-18T09:22:35.777Z,23.96
2017-06-18T09:23:36.421Z,24.03
2017-06-18T09:24:37.017Z,24.03
2017-06-18T09:25:37.665Z,24.08
2017-06-18T09:26:38.315Z,24.10
2017-06-18T09:27:39.065Z,24.11
2017-06-18T09:28:39.713Z,24.23
2017-06-18T09:29:40.362Z,24.20
2017-06-18T09:30:41.009Z,24.28
2017-06-18T09:31:41.656Z,24.30
2017-06-18T09:32:42.305Z,24.35
2017-06-18T09:33:42.952Z,24.35
2017-06-18T09:34:43.598Z,24.33
2017-06-18T09:35:44.245Z,24.42
2017-06-18T09:36:45.445Z,24.30
2017-06-18T09:37:46.092Z,24.40
2017-06-18T09:38:46.743Z,24.43
2017-06-18T09:39:47.394Z,24.39
2017-06-18T09:40:48.105Z,24.40
2017-06-18T09:41:48.747Z,24.38
2017-06-18T09:42:49.397Z,24.51
2017-06-18T09:43:50.043Z,24.54
2017-06-18T09:44:50.842Z,24.51
2017-06-18T09:45:51.490Z,24.48
2017-06-18T09:46:52.138Z,24.48
2017-06-18T09:47:52.786Z,24.45
2017-06-18T09:48:53.437Z,24.57
2017-06-18T09:49:54.082Z,24.54
2017-06-18T09:50:54.729Z,24.54
2017-06-18T09:51:55.375Z,24.63
2017-06-18T09:52:56.223Z,24.57
2017-06-18T09:53:56.874Z,24.60
2017-06-18T09:54:57.522Z,24.74
2017-06-18T09:55:58.172Z,24.68
2017-06-18T09:56:58.820Z,24.74
2017-06-18T09:57:59.468Z,24.74
2017-06-18T09:59:00.168Z,24.76
2017-06-18T10:00:00.817Z,24.76
2017-06-18T10:01:01.614Z,24.80
2017-06-18T10:02:02.260Z,24.85
2017-06-18T10:03:02.907Z,24.81
2017-06-18T10:04:03.556Z,24.76
2017-06-18T10:05:04.205Z,24.78
2017-06-18T10:06:04.852Z,24.74
2017-06-18T10:07:05.498Z,24.78
2017-06-18T10:08:06.150Z,24.76
2017-06-18T10:09:06.996Z,24.84
2017-06-18T10:10:07.647Z,24.78
2017-06-18T10:11:08.297Z,24.76
2017-06-18T10:12:08.944Z,24.78
2017-06-18T10:13:09.597Z,24.74
2017-06-18T10:14:10.246Z,24.68
2017-06-18T10:15:10.896Z,24.77
2017-06-18T10:16:11.547Z,24.74
2017-06-18T10:17:12.193Z,24.77
2017-06-18T10:18:12.997Z,24.84
2017-06-18T10:19:13.641Z,24.86
2017-06-18T10:20:14.292Z,24.84
2017-06-18T10:21:14.941Z,24.88
2017-06-18T10:22:15.589Z,24.95
2017-06-18T10:23:16.240Z,24.96
2017-06-18T10:24:16.890Z,24.91
2017-06-18T10:25:17.539Z,24.95
2017-06-18T10:26:18.339Z,25.03
2017-06-18T10:27:18.988Z,24.98
2017-06-18T10:28:19.639Z,25.03
2017-06-18T10:29:20.288Z,24.93
2017-06-18T10:30:20.938Z,25.06
2017-06-18T10:31:21.588Z,25.04
2017-06-18T10:32:22.239Z,25.06
2017-06-18T10:33:22.890Z,25.04
2017-06-18T10:34:23.741Z,25.06
2017-06-18T10:35:24.391Z,25.04
2017-06-18T10:36:25.037Z,25.13
2017-06-18T10:37:25.685Z,25.13
2017-06-18T10:38:26.333Z,25.13
2017-06-18T10:39:26.982Z,25.13
2017-06-18T10:40:27.630Z,25.18
2017-06-18T10:41:28.279Z,25.14
2017-06-18T10:42:29.130Z,25.25
2017-06-18T10:43:29.779Z,25.16
2017-06-18T10:44:30.430Z,25.23
2017-06-18T10:45:31.077Z,25.22
2017-06-18T10:46:31.729Z,25.28
2017-06-18T10:47:32.377Z,25.32
2017-06-18T10:48:33.026Z,25.32
2017-06-18T10:49:33.677Z,25.33
2017-06-18T10:50:34.330Z,25.33
2017-06-18T10:51:35.279Z,25.35
2017-06-18T10:52:35.928Z,25.36
2017-06-18T10:53:36.577Z,25.38
2017-06-18T10:54:37.229Z,25.44
2017-06-18T10:55:37.879Z,25.32
2017-06-18T10:56:38.527Z,25.35
2017-06-18T10:57:39.181Z,25.40
2017-06-18T10:58:39.827Z,25.41
2017-06-18T10:59:40.580Z,25.43
2017-06-18T11:00:41.228Z,25.51
2017-06-18T11:01:41.878Z,25.50
2017-06-18T11:02:42.527Z,25.48
2017-06-18T11:03:43.176Z,25.54
2017-06-18T11:04:43.827Z,25.48
2017-06-18T11:05:44.476Z,25.41
2017-06-18T11:06:45.128Z,25.46
2017-06-18T11:07:45.977Z,25.31
2017-06-18T11:08:46.627Z,25.48
2017-06-18T11:09:47.337Z,25.41
2017-06-18T11:10:47.985Z,25.50
2017-06-18T11:11:48.635Z,25.47
2017-06-18T11:12:49.286Z,25.44
2017-06-18T11:13:49.938Z,25.46
2017-06-18T11:14:50.588Z,25.50
2017-06-18T11:15:51.390Z,25.51
2017-06-18T11:16:52.043Z,25.43
2017-06-18T11:17:52.695Z,25.50
2017-06-18T11:18:53.346Z,25.53
2017-06-18T11:19:53.996Z,25.46
2017-06-18T11:20:54.647Z,25.47
2017-06-18T11:21:55.298Z,25.58
2017-06-18T11:22:55.948Z,25.47
2017-06-18T11:23:56.601Z,25.50
2017-06-18T11:24:57.537Z,25.58
2017-06-18T11:25:58.191Z,25.58
2017-06-18T11:26:58.841Z,25.59
2017-06-18T11:27:59.493Z,25.69
2017-06-18T11:29:00.145Z,25.69
2017-06-18T11:30:00.797Z,25.68
2017-06-18T11:31:01.449Z,25.63
2017-06-18T11:32:02.099Z,25.69
2017-06-18T11:33:02.999Z,25.65
2017-06-18T11:34:03.651Z,25.70
2017-06-18T11:35:04.302Z,25.75
2017-06-18T11:36:04.953Z,25.77
2017-06-18T11:37:05.605Z,25.81
2017-06-18T11:38:06.259Z,25.77
2017-06-18T11:39:06.910Z,25.83
2017-06-18T11:40:07.562Z,25.84
2017-06-18T11:41:08.515Z,25.84
2017-06-18T11:42:09.165Z,25.84
2017-06-18T11:43:09.818Z,25.85
2017-06-18T11:44:10.471Z,25.87
2017-06-18T11:45:11.124Z,25.91
2017-06-18T11:46:11.779Z,25.88
2017-06-18T11:47:12.427Z,26.03
2017-06-18T11:48:13.079Z,25.96
2017-06-18T11:49:13.932Z,26.06
2017-06-18T11:50:14.586Z,26.16
2017-06-18T11:51:15.236Z,26.16
2017-06-18T11:52:15.889Z,26.13
2017-06-18T11:53:16.543Z,26.15
2017-06-18T11:54:17.196Z,26.19
2017-06-18T11:55:17.846Z,26.18
2017-06-18T11:56:18.500Z,26.26
2017-06-18T11:57:19.453Z,26.26
2017-06-18T11:58:20.106Z,26.33
2017-06-18T11:59:20.761Z,26.34
2017-06-18T12:00:21.412Z,26.25
2017-06-18T12:01:22.065Z,26.37
2017-06-18T12:02:22.714Z,26.38
2017-06-18T12:03:23.365Z,26.44
2017-06-18T12:04:24.017Z,26.45
2017-06-18T12:05:24.671Z,26.43
2017-06-18T12:06:25.521Z,26.52
2017-06-18T12:07:26.171Z,26.51
2017-06-18T12:08:26.822Z,26.56
2017-06-18T12:09:27.474Z,26.60
2017-06-18T12:10:28.122Z,26.60
2017-06-18T12:11:28.774Z,26.60
2017-06-18T12:12:29.423Z,26.71
2017-06-18T12:13:30.076Z,26.73
2017-06-18T12:14:30.929Z,26.81
2017-06-18T12:15:31.580Z,26.80
2017-06-18T12:16:32.230Z,26.85
2017-06-18T12:17:32.880Z,26.92
2017-06-18T12:18:33.532Z,26.92
2017-06-18T12:19:34.186Z,26.90
2017-06-18T12:20:34.835Z,26.88
2017-06-18T12:21:35.490Z,27.02
2017-06-18T12:22:36.293Z,26.96
2017-06-18T12:23:36.943Z,27.12
2017-06-18T12:24:37.595Z,27.14
2017-06-18T12:25:38.244Z,27.12
2017-06-18T12:26:38.898Z,27.17
2017-06-18T12:27:39.549Z,27.20
2017-06-18T12:28:40.202Z,27.29
2017-06-18T12:29:40.854Z,27.26
2017-06-18T12:30:41.806Z,27.37
2017-06-18T12:31:42.457Z,27.36
2017-06-18T12:32:43.110Z,27.36
2017-06-18T12:33:43.760Z,27.44
2017-06-18T12:34:44.413Z,27.51
2017-06-18T12:35:45.067Z,27.59
2017-06-18T12:36:45.717Z,27.52
2017-06-18T12:37:46.376Z,27.63
2017-06-18T12:38:47.028Z,27.63
2017-06-18T12:39:48.005Z,27.59
2017-06-18T12:40:48.658Z,27.67
2017-06-18T12:41:49.309Z,27.67
2017-06-18T12:42:49.962Z,27.73
2017-06-18T12:43:50.617Z,27.74
2017-06-18T12:44:51.270Z,27.75
2017-06-18T12:45:51.922Z,27.83
2017-06-18T12:46:52.574Z,27.77
2017-06-18T12:47:53.430Z,27.82
2017-06-18T12:48:54.082Z,27.82
2017-06-18T12:49:54.736Z,27.77
2017-06-18T12:50:55.391Z,27.80
2017-06-18T12:51:56.043Z,27.82
2017-06-18T12:52:56.696Z,27.77
2017-06-18T12:53:57.351Z,27.83
2017-06-18T12:54:57.955Z,27.86
2017-06-18T12:55:58.810Z,27.80
2017-06-18T12:56:59.462Z,27.86
2017-06-18T12:58:00.116Z,27.87
2017-06-18T12:59:00.768Z,27.83
2017-06-18T13:00:01.470Z,27.77
2017-06-18T13:01:02.122Z,27.80